sensor_id;sensor_type;location;lat;lon;timestamp;temperature;humidity
23683;DHT22;24897;53.514;10.482;2022-10-30T00:01:49;14.20;99.90
23683;DHT22;24897;53.514;10.482;2022-10-30T00:04:33;14.20;99.90
23683;DHT22;24897;53.514;10.482;2022-10-30T00:07:18;14.20;99.90
23683;DHT22;24897;53.514;10.482;2022-10-30T00:10:02;14.20;99.90
23683;DHT22;24897;53.514;10.482;2022-10-30T00:12:46;14.20;99.90
23683;DHT22;24897;53.514;10.482;2022-10-30T00:15:30;14.20;99.90
23683;DHT22;24897;53.514;10.482;2022-10-30T00:18:15;14.20;99.90
23683;DHT22;24897;53.514;10.482;2022-10-30T00:21:11;14.20;99.90
23683;DHT22;24897;53.514;10.482;2022-10-30T00:23:56;14.20;99.90
23683;DHT22;24897;53.514;10.482;2022-10-30T00:26:40;14.20;99.90
23683;DHT22;24897;53.514;10.482;2022-10-30T00:29:24;14.20;99.90
23683;DHT22;24897;53.514;10.482;2022-10-30T00:32:09;13.90;99.90
23683;DHT22;24897;53.514;10.482;2022-10-30T00:34:54;14.00;99.90
23683;DHT22;24897;53.514;10.482;2022-10-30T00:37:38;14.00;99.90
23683;DHT22;24897;53.514;10.482;2022-10-30T00:40:22;13.90;99.90
23683;DHT22;24897;53.514;10.482;2022-10-30T00:49:15;13.90;99.90
23683;DHT22;24897;53.514;10.482;2022-10-30T00:52:01;13.90;99.90
23683;DHT22;24897;53.514;10.482;2022-10-30T00:54:46;13.90;99.90
23683;DHT22;24897;53.514;10.482;2022-10-30T00:57:31;13.80;99.90
23683;DHT22;24897;53.514;10.482;2022-10-30T01:00:16;13.80;99.90
23683;DHT22;24897;53.514;10.482;2022-10-30T01:03:04;13.80;99.90
23683;DHT22;24897;53.514;10.482;2022-10-30T01:05:51;13.80;99.90
23683;DHT22;24897;53.514;10.482;2022-10-30T01:08:37;13.80;99.90
23683;DHT22;24897;53.514;10.482;2022-10-30T01:11:21;13.70;99.90
23683;DHT22;24897;53.514;10.482;2022-10-30T01:14:07;13.70;99.90
23683;DHT22;24897;53.514;10.482;2022-10-30T01:29:12;13.50;99.90
23683;DHT22;24897;53.514;10.482;2022-10-30T01:34:54;13.60;99.90
23683;DHT22;24897;53.514;10.482;2022-10-30T01:38:03;13.60;99.90
23683;DHT22;24897;53.514;10.482;2022-10-30T01:40:49;13.60;99.90
23683;DHT22;24897;53.514;10.482;2022-10-30T01:43:34;13.60;99.90
23683;DHT22;24897;53.514;10.482;2022-10-30T01:49:43;13.60;99.90
23683;DHT22;24897;53.514;10.482;2022-10-30T01:58:47;13.60;99.90
23683;DHT22;24897;53.514;10.482;2022-10-30T02:01:34;15.40;99.90
23683;DHT22;24897;53.514;10.482;2022-10-30T02:04:19;13.60;99.90
23683;DHT22;24897;53.514;10.482;2022-10-30T02:07:04;13.70;99.90
23683;DHT22;24897;53.514;10.482;2022-10-30T02:09:53;13.70;99.90
23683;DHT22;24897;53.514;10.482;2022-10-30T02:12:38;13.70;99.90
23683;DHT22;24897;53.514;10.482;2022-10-30T02:15:22;13.70;99.90
23683;DHT22;24897;53.514;10.482;2022-10-30T02:18:07;13.80;99.90
23683;DHT22;24897;53.514;10.482;2022-10-30T02:20:52;13.80;99.90
23683;DHT22;24897;53.514;10.482;2022-10-30T02:23:36;13.80;99.90
23683;DHT22;24897;53.514;10.482;2022-10-30T02:26:20;13.80;99.90
23683;DHT22;24897;53.514;10.482;2022-10-30T02:29:05;13.90;99.90
23683;DHT22;24897;53.514;10.482;2022-10-30T02:31:49;13.80;99.90
23683;DHT22;24897;53.514;10.482;2022-10-30T02:34:33;13.90;99.90
23683;DHT22;24897;53.514;10.482;2022-10-30T02:37:18;13.90;99.90
23683;DHT22;24897;53.514;10.482;2022-10-30T02:40:03;13.90;99.90
23683;DHT22;24897;53.514;10.482;2022-10-30T02:42:51;13.90;99.90
23683;DHT22;24897;53.514;10.482;2022-10-30T02:45:36;13.90;99.90
23683;DHT22;24897;53.514;10.482;2022-10-30T02:48:20;13.90;99.90
23683;DHT22;24897;53.514;10.482;2022-10-30T02:51:04;13.80;99.90
23683;DHT22;24897;53.514;10.482;2022-10-30T02:53:48;13.80;99.90
23683;DHT22;24897;53.514;10.482;2022-10-30T02:56:33;13.80;99.90
23683;DHT22;24897;53.514;10.482;2022-10-30T02:59:17;13.80;99.90
23683;DHT22;24897;53.514;10.482;2022-10-30T03:02:02;13.90;99.90
23683;DHT22;24897;53.514;10.482;2022-10-30T03:04:46;14.00;99.90
23683;DHT22;24897;53.514;10.482;2022-10-30T03:07:30;13.80;99.90
23683;DHT22;24897;53.514;10.482;2022-10-30T03:10:14;14.50;99.90
23683;DHT22;24897;53.514;10.482;2022-10-30T03:12:59;13.80;99.90
23683;DHT22;24897;53.514;10.482;2022-10-30T03:15:43;13.70;99.90
23683;DHT22;24897;53.514;10.482;2022-10-30T03:18:27;13.80;99.90
23683;DHT22;24897;53.514;10.482;2022-10-30T03:21:13;13.60;99.90
23683;DHT22;24897;53.514;10.482;2022-10-30T03:23:58;13.50;99.90
23683;DHT22;24897;53.514;10.482;2022-10-30T03:26:42;13.40;99.90
23683;DHT22;24897;53.514;10.482;2022-10-30T03:29:26;13.40;99.90
23683;DHT22;24897;53.514;10.482;2022-10-30T03:32:11;13.40;99.90
23683;DHT22;24897;53.514;10.482;2022-10-30T03:34:55;13.40;99.90
23683;DHT22;24897;53.514;10.482;2022-10-30T03:37:39;13.40;99.90
23683;DHT22;24897;53.514;10.482;2022-10-30T03:40:24;13.20;99.90
23683;DHT22;24897;53.514;10.482;2022-10-30T03:43:08;13.20;99.90
23683;DHT22;24897;53.514;10.482;2022-10-30T03:45:55;13.10;99.90
23683;DHT22;24897;53.514;10.482;2022-10-30T03:48:39;13.10;99.90
23683;DHT22;24897;53.514;10.482;2022-10-30T03:51:23;13.00;99.90
23683;DHT22;24897;53.514;10.482;2022-10-30T03:54:07;12.90;99.90
23683;DHT22;24897;53.514;10.482;2022-10-30T03:56:51;13.10;99.90
23683;DHT22;24897;53.514;10.482;2022-10-30T03:59:35;12.90;99.90
23683;DHT22;24897;53.514;10.482;2022-10-30T04:02:19;12.80;99.90
23683;DHT22;24897;53.514;10.482;2022-10-30T04:05:04;12.80;99.90
23683;DHT22;24897;53.514;10.482;2022-10-30T04:07:53;12.80;99.90
23683;DHT22;24897;53.514;10.482;2022-10-30T04:10:42;12.70;99.90
23683;DHT22;24897;53.514;10.482;2022-10-30T04:13:27;12.60;99.90
23683;DHT22;24897;53.514;10.482;2022-10-30T04:16:11;12.60;99.90
23683;DHT22;24897;53.514;10.482;2022-10-30T04:18:55;12.60;99.90
23683;DHT22;24897;53.514;10.482;2022-10-30T04:21:39;12.60;99.90
23683;DHT22;24897;53.514;10.482;2022-10-30T04:24:26;12.50;99.90
23683;DHT22;24897;53.514;10.482;2022-10-30T04:27:10;12.50;99.90
23683;DHT22;24897;53.514;10.482;2022-10-30T04:29:56;12.30;99.90
23683;DHT22;24897;53.514;10.482;2022-10-30T04:32:47;12.30;99.90
23683;DHT22;24897;53.514;10.482;2022-10-30T04:35:34;12.20;99.90
23683;DHT22;24897;53.514;10.482;2022-10-30T04:38:22;12.10;99.90
23683;DHT22;24897;53.514;10.482;2022-10-30T04:41:06;12.10;99.90
23683;DHT22;24897;53.514;10.482;2022-10-30T04:43:51;12.00;99.90
23683;DHT22;24897;53.514;10.482;2022-10-30T04:46:35;12.00;99.90
23683;DHT22;24897;53.514;10.482;2022-10-30T04:49:19;12.00;99.90
23683;DHT22;24897;53.514;10.482;2022-10-30T04:52:03;11.90;99.90
23683;DHT22;24897;53.514;10.482;2022-10-30T04:54:47;11.90;99.90
23683;DHT22;24897;53.514;10.482;2022-10-30T04:57:31;11.90;99.90
23683;DHT22;24897;53.514;10.482;2022-10-30T05:00:16;11.90;99.90
23683;DHT22;24897;53.514;10.482;2022-10-30T05:03:00;12.40;99.90
23683;DHT22;24897;53.514;10.482;2022-10-30T05:05:46;12.00;99.90
23683;DHT22;24897;53.514;10.482;2022-10-30T05:08:32;12.00;99.90
23683;DHT22;24897;53.514;10.482;2022-10-30T05:11:16;12.00;99.90
23683;DHT22;24897;53.514;10.482;2022-10-30T05:14:01;12.00;99.90
23683;DHT22;24897;53.514;10.482;2022-10-30T05:16:46;12.00;99.90
23683;DHT22;24897;53.514;10.482;2022-10-30T05:19:30;12.00;99.90
23683;DHT22;24897;53.514;10.482;2022-10-30T05:22:14;11.90;99.90
23683;DHT22;24897;53.514;10.482;2022-10-30T05:24:58;11.90;99.90
23683;DHT22;24897;53.514;10.482;2022-10-30T05:27:42;11.90;99.90
23683;DHT22;24897;53.514;10.482;2022-10-30T05:30:27;13.00;99.90
23683;DHT22;24897;53.514;10.482;2022-10-30T05:33:12;11.80;99.90
23683;DHT22;24897;53.514;10.482;2022-10-30T05:35:58;11.80;99.90
23683;DHT22;24897;53.514;10.482;2022-10-30T05:38:42;11.70;99.90
23683;DHT22;24897;53.514;10.482;2022-10-30T05:41:28;11.70;99.90
23683;DHT22;24897;53.514;10.482;2022-10-30T05:44:12;11.60;99.90
23683;DHT22;24897;53.514;10.482;2022-10-30T05:46:57;12.20;99.90
23683;DHT22;24897;53.514;10.482;2022-10-30T05:49:40;11.50;99.90
23683;DHT22;24897;53.514;10.482;2022-10-30T05:52:25;11.50;99.90
23683;DHT22;24897;53.514;10.482;2022-10-30T05:55:09;11.40;99.90
23683;DHT22;24897;53.514;10.482;2022-10-30T05:57:57;11.50;99.90
23683;DHT22;24897;53.514;10.482;2022-10-30T06:00:42;11.90;99.90
23683;DHT22;24897;53.514;10.482;2022-10-30T06:03:27;11.50;99.90
23683;DHT22;24897;53.514;10.482;2022-10-30T06:06:11;11.40;99.90
23683;DHT22;24897;53.514;10.482;2022-10-30T06:08:55;11.40;99.90
23683;DHT22;24897;53.514;10.482;2022-10-30T06:11:39;11.40;99.90
23683;DHT22;24897;53.514;10.482;2022-10-30T06:14:23;11.40;99.90
23683;DHT22;24897;53.514;10.482;2022-10-30T06:17:07;11.40;99.90
23683;DHT22;24897;53.514;10.482;2022-10-30T06:19:51;12.10;99.90
23683;DHT22;24897;53.514;10.482;2022-10-30T06:22:35;11.40;99.90
23683;DHT22;24897;53.514;10.482;2022-10-30T06:25:20;11.50;99.90
23683;DHT22;24897;53.514;10.482;2022-10-30T06:28:04;11.50;99.90
23683;DHT22;24897;53.514;10.482;2022-10-30T06:30:48;11.50;99.90
23683;DHT22;24897;53.514;10.482;2022-10-30T06:33:32;11.50;99.90
23683;DHT22;24897;53.514;10.482;2022-10-30T06:36:17;11.50;99.90
23683;DHT22;24897;53.514;10.482;2022-10-30T06:39:01;11.60;99.90
23683;DHT22;24897;53.514;10.482;2022-10-30T06:41:45;11.60;99.90
23683;DHT22;24897;53.514;10.482;2022-10-30T06:44:29;11.70;99.90
23683;DHT22;24897;53.514;10.482;2022-10-30T06:47:14;11.80;99.90
23683;DHT22;24897;53.514;10.482;2022-10-30T06:49:58;11.80;99.90
23683;DHT22;24897;53.514;10.482;2022-10-30T06:52:42;11.90;99.90
23683;DHT22;24897;53.514;10.482;2022-10-30T06:55:26;12.00;99.90
23683;DHT22;24897;53.514;10.482;2022-10-30T06:58:10;12.00;99.90
23683;DHT22;24897;53.514;10.482;2022-10-30T07:00:57;12.20;99.90
23683;DHT22;24897;53.514;10.482;2022-10-30T07:03:42;12.20;99.90
23683;DHT22;24897;53.514;10.482;2022-10-30T07:06:26;12.40;99.90
23683;DHT22;24897;53.514;10.482;2022-10-30T07:09:10;12.60;99.90
23683;DHT22;24897;53.514;10.482;2022-10-30T07:11:54;12.80;99.90
23683;DHT22;24897;53.514;10.482;2022-10-30T07:14:38;13.00;99.90
23683;DHT22;24897;53.514;10.482;2022-10-30T07:17:23;13.10;99.90
23683;DHT22;24897;53.514;10.482;2022-10-30T07:20:07;13.30;99.90
23683;DHT22;24897;53.514;10.482;2022-10-30T07:22:52;13.90;99.90
23683;DHT22;24897;53.514;10.482;2022-10-30T07:25:37;13.60;99.90
23683;DHT22;24897;53.514;10.482;2022-10-30T07:28:21;13.80;99.90
23683;DHT22;24897;53.514;10.482;2022-10-30T07:31:05;13.90;99.90
23683;DHT22;24897;53.514;10.482;2022-10-30T07:33:49;14.00;99.90
23683;DHT22;24897;53.514;10.482;2022-10-30T07:36:33;14.20;99.90
23683;DHT22;24897;53.514;10.482;2022-10-30T07:42:02;14.60;99.90
23683;DHT22;24897;53.514;10.482;2022-10-30T07:44:46;14.30;99.90
23683;DHT22;24897;53.514;10.482;2022-10-30T07:47:30;14.50;99.90
23683;DHT22;24897;53.514;10.482;2022-10-30T07:50:14;14.50;99.90
23683;DHT22;24897;53.514;10.482;2022-10-30T07:52:58;14.50;99.90
23683;DHT22;24897;53.514;10.482;2022-10-30T07:55:42;14.50;99.90
23683;DHT22;24897;53.514;10.482;2022-10-30T07:58:26;14.60;99.90
23683;DHT22;24897;53.514;10.482;2022-10-30T08:01:10;14.70;99.90
23683;DHT22;24897;53.514;10.482;2022-10-30T08:03:55;14.60;99.90
23683;DHT22;24897;53.514;10.482;2022-10-30T08:06:39;14.60;99.90
23683;DHT22;24897;53.514;10.482;2022-10-30T08:09:23;14.70;99.90
23683;DHT22;24897;53.514;10.482;2022-10-30T08:12:07;14.70;99.90
23683;DHT22;24897;53.514;10.482;2022-10-30T08:14:51;14.70;99.90
23683;DHT22;24897;53.514;10.482;2022-10-30T08:17:49;14.80;99.90
23683;DHT22;24897;53.514;10.482;2022-10-30T08:20:33;14.90;99.90
23683;DHT22;24897;53.514;10.482;2022-10-30T08:23:18;15.00;99.90
23683;DHT22;24897;53.514;10.482;2022-10-30T08:26:03;15.10;99.90
23683;DHT22;24897;53.514;10.482;2022-10-30T08:31:32;15.40;99.90
23683;DHT22;24897;53.514;10.482;2022-10-30T08:34:17;16.00;99.90
23683;DHT22;24897;53.514;10.482;2022-10-30T08:37:01;15.70;99.90
23683;DHT22;24897;53.514;10.482;2022-10-30T08:39:45;15.90;99.90
23683;DHT22;24897;53.514;10.482;2022-10-30T08:42:30;15.80;99.90
23683;DHT22;24897;53.514;10.482;2022-10-30T08:45:14;16.70;99.90
23683;DHT22;24897;53.514;10.482;2022-10-30T08:47:59;16.40;99.90
23683;DHT22;24897;53.514;10.482;2022-10-30T08:50:44;16.70;99.90
23683;DHT22;24897;53.514;10.482;2022-10-30T08:53:28;16.80;99.90
23683;DHT22;24897;53.514;10.482;2022-10-30T08:56:12;17.10;99.90
23683;DHT22;24897;53.514;10.482;2022-10-30T08:58:56;17.30;99.90
23683;DHT22;24897;53.514;10.482;2022-10-30T09:01:40;17.40;99.90
23683;DHT22;24897;53.514;10.482;2022-10-30T09:04:24;17.60;99.90
23683;DHT22;24897;53.514;10.482;2022-10-30T09:07:08;17.80;99.90
23683;DHT22;24897;53.514;10.482;2022-10-30T09:09:52;18.10;99.90
23683;DHT22;24897;53.514;10.482;2022-10-30T09:12:37;18.20;99.90
23683;DHT22;24897;53.514;10.482;2022-10-30T09:15:21;18.40;99.90
23683;DHT22;24897;53.514;10.482;2022-10-30T09:18:05;18.50;99.90
23683;DHT22;24897;53.514;10.482;2022-10-30T09:20:49;18.40;99.90
23683;DHT22;24897;53.514;10.482;2022-10-30T09:23:33;18.40;99.90
23683;DHT22;24897;53.514;10.482;2022-10-30T09:26:17;18.80;99.90
23683;DHT22;24897;53.514;10.482;2022-10-30T09:29:03;19.10;99.90
23683;DHT22;24897;53.514;10.482;2022-10-30T09:31:46;19.60;99.90
23683;DHT22;24897;53.514;10.482;2022-10-30T09:34:31;19.80;99.90
23683;DHT22;24897;53.514;10.482;2022-10-30T09:37:14;19.80;99.90
23683;DHT22;24897;53.514;10.482;2022-10-30T09:39:58;19.90;99.90
23683;DHT22;24897;53.514;10.482;2022-10-30T09:42:45;20.00;99.90
23683;DHT22;24897;53.514;10.482;2022-10-30T09:45:47;20.20;99.90
23683;DHT22;24897;53.514;10.482;2022-10-30T09:51:44;20.30;99.90
23683;DHT22;24897;53.514;10.482;2022-10-30T09:57:48;20.60;99.90
23683;DHT22;24897;53.514;10.482;2022-10-30T10:00:38;20.50;99.90
23683;DHT22;24897;53.514;10.482;2022-10-30T10:06:22;20.40;99.90
23683;DHT22;24897;53.514;10.482;2022-10-30T10:09:19;20.70;99.90
23683;DHT22;24897;53.514;10.482;2022-10-30T10:12:09;20.80;99.90
23683;DHT22;24897;53.514;10.482;2022-10-30T10:14:55;21.10;99.90
23683;DHT22;24897;53.514;10.482;2022-10-30T10:17:44;21.60;99.90
23683;DHT22;24897;53.514;10.482;2022-10-30T10:20:35;21.40;99.90
23683;DHT22;24897;53.514;10.482;2022-10-30T10:23:32;21.60;99.90
23683;DHT22;24897;53.514;10.482;2022-10-30T10:32:26;21.80;99.90
23683;DHT22;24897;53.514;10.482;2022-10-30T10:44:23;23.10;99.90
23683;DHT22;24897;53.514;10.482;2022-10-30T10:50:31;22.90;99.90
23683;DHT22;24897;53.514;10.482;2022-10-30T10:53:21;22.80;99.90
23683;DHT22;24897;53.514;10.482;2022-10-30T10:56:08;22.60;99.90
23683;DHT22;24897;53.514;10.482;2022-10-30T10:58:56;22.80;99.90
23683;DHT22;24897;53.514;10.482;2022-10-30T11:04:39;23.10;99.90
23683;DHT22;24897;53.514;10.482;2022-10-30T11:07:29;23.00;99.90
23683;DHT22;24897;53.514;10.482;2022-10-30T11:10:17;23.50;99.90
23683;DHT22;24897;53.514;10.482;2022-10-30T11:13:01;23.80;99.90
23683;DHT22;24897;53.514;10.482;2022-10-30T11:19:08;23.00;99.90
23683;DHT22;24897;53.514;10.482;2022-10-30T11:21:53;22.90;99.90
23683;DHT22;24897;53.514;10.482;2022-10-30T11:24:38;23.20;99.90
23683;DHT22;24897;53.514;10.482;2022-10-30T11:30:18;23.50;99.90
23683;DHT22;24897;53.514;10.482;2022-10-30T11:33:20;23.40;99.90
23683;DHT22;24897;53.514;10.482;2022-10-30T11:36:08;23.60;99.90
23683;DHT22;24897;53.514;10.482;2022-10-30T11:38:56;23.40;99.90
23683;DHT22;24897;53.514;10.482;2022-10-30T11:42:14;23.10;99.90
23683;DHT22;24897;53.514;10.482;2022-10-30T11:45:00;23.40;99.90
23683;DHT22;24897;53.514;10.482;2022-10-30T11:47:45;23.50;99.90
23683;DHT22;24897;53.514;10.482;2022-10-30T11:50:30;23.70;99.90
23683;DHT22;24897;53.514;10.482;2022-10-30T11:53:20;23.80;99.90
23683;DHT22;24897;53.514;10.482;2022-10-30T11:56:23;24.00;99.90
23683;DHT22;24897;53.514;10.482;2022-10-30T11:59:18;24.00;99.90
23683;DHT22;24897;53.514;10.482;2022-10-30T12:02:26;23.90;99.90
23683;DHT22;24897;53.514;10.482;2022-10-30T12:11:00;23.60;99.90
23683;DHT22;24897;53.514;10.482;2022-10-30T12:13:45;23.50;99.90
23683;DHT22;24897;53.514;10.482;2022-10-30T12:16:29;23.70;99.90
23683;DHT22;24897;53.514;10.482;2022-10-30T12:19:14;23.80;99.90
23683;DHT22;24897;53.514;10.482;2022-10-30T12:21:59;23.60;99.90
23683;DHT22;24897;53.514;10.482;2022-10-30T12:24:44;23.50;99.90
23683;DHT22;24897;53.514;10.482;2022-10-30T12:27:31;23.70;99.90
23683;DHT22;24897;53.514;10.482;2022-10-30T12:30:18;23.60;99.90
23683;DHT22;24897;53.514;10.482;2022-10-30T12:33:09;23.40;99.90
23683;DHT22;24897;53.514;10.482;2022-10-30T12:35:57;23.80;99.90
23683;DHT22;24897;53.514;10.482;2022-10-30T12:41:39;24.40;99.90
23683;DHT22;24897;53.514;10.482;2022-10-30T12:44:34;24.40;99.90
23683;DHT22;24897;53.514;10.482;2022-10-30T12:47:34;24.50;99.90
23683;DHT22;24897;53.514;10.482;2022-10-30T12:50:35;24.30;99.90
23683;DHT22;24897;53.514;10.482;2022-10-30T12:53:53;24.00;99.90
23683;DHT22;24897;53.514;10.482;2022-10-30T12:56:44;23.70;99.90
23683;DHT22;24897;53.514;10.482;2022-10-30T13:05:37;23.60;99.90
23683;DHT22;24897;53.514;10.482;2022-10-30T13:14:46;23.80;99.90
23683;DHT22;24897;53.514;10.482;2022-10-30T13:17:32;23.80;99.90
23683;DHT22;24897;53.514;10.482;2022-10-30T13:20:16;23.80;99.90
23683;DHT22;24897;53.514;10.482;2022-10-30T13:23:14;23.70;99.90
23683;DHT22;24897;53.514;10.482;2022-10-30T13:26:12;23.60;99.90
23683;DHT22;24897;53.514;10.482;2022-10-30T13:37:42;22.30;99.90
23683;DHT22;24897;53.514;10.482;2022-10-30T13:40:43;22.20;99.90
23683;DHT22;24897;53.514;10.482;2022-10-30T13:46:38;21.70;99.90
23683;DHT22;24897;53.514;10.482;2022-10-30T13:49:56;21.70;99.90
23683;DHT22;24897;53.514;10.482;2022-10-30T13:52:49;21.60;99.90
23683;DHT22;24897;53.514;10.482;2022-10-30T13:55:34;21.60;99.90
23683;DHT22;24897;53.514;10.482;2022-10-30T14:01:37;21.80;99.90
23683;DHT22;24897;53.514;10.482;2022-10-30T14:04:37;21.80;99.90
23683;DHT22;24897;53.514;10.482;2022-10-30T14:16:01;21.70;99.90
23683;DHT22;24897;53.514;10.482;2022-10-30T14:19:01;21.70;99.90
23683;DHT22;24897;53.514;10.482;2022-10-30T14:21:55;21.60;99.90
23683;DHT22;24897;53.514;10.482;2022-10-30T14:24:43;21.40;99.90
23683;DHT22;24897;53.514;10.482;2022-10-30T14:27:29;21.40;99.90
23683;DHT22;24897;53.514;10.482;2022-10-30T14:30:18;21.30;99.90
23683;DHT22;24897;53.514;10.482;2022-10-30T14:33:03;21.40;99.90
23683;DHT22;24897;53.514;10.482;2022-10-30T14:36:23;21.40;99.90
23683;DHT22;24897;53.514;10.482;2022-10-30T14:45:13;21.20;99.90
23683;DHT22;24897;53.514;10.482;2022-10-30T14:51:22;20.90;99.90
23683;DHT22;24897;53.514;10.482;2022-10-30T14:57:31;20.70;99.90
23683;DHT22;24897;53.514;10.482;2022-10-30T15:00:44;20.60;99.90
23683;DHT22;24897;53.514;10.482;2022-10-30T15:09:53;20.40;99.90
23683;DHT22;24897;53.514;10.482;2022-10-30T15:15:28;19.90;99.90
23683;DHT22;24897;53.514;10.482;2022-10-30T15:18:17;19.80;99.90
23683;DHT22;24897;53.514;10.482;2022-10-30T15:21:06;19.80;99.90
23683;DHT22;24897;53.514;10.482;2022-10-30T15:23:53;19.70;99.90
23683;DHT22;24897;53.514;10.482;2022-10-30T15:26:38;19.50;99.90
23683;DHT22;24897;53.514;10.482;2022-10-30T15:29:29;20.00;99.90
23683;DHT22;24897;53.514;10.482;2022-10-30T15:32:19;19.50;99.90
23683;DHT22;24897;53.514;10.482;2022-10-30T15:35:22;19.30;99.90
23683;DHT22;24897;53.514;10.482;2022-10-30T15:38:09;19.30;99.90
23683;DHT22;24897;53.514;10.482;2022-10-30T15:40:58;19.20;99.90
23683;DHT22;24897;53.514;10.482;2022-10-30T15:43:44;19.10;99.90
23683;DHT22;24897;53.514;10.482;2022-10-30T15:46:28;19.10;99.90
23683;DHT22;24897;53.514;10.482;2022-10-30T15:52:18;18.90;99.90
23683;DHT22;24897;53.514;10.482;2022-10-30T15:55:10;18.80;99.90
23683;DHT22;24897;53.514;10.482;2022-10-30T15:57:59;18.60;99.90
23683;DHT22;24897;53.514;10.482;2022-10-30T16:00:55;18.40;99.90
23683;DHT22;24897;53.514;10.482;2022-10-30T16:03:40;18.30;99.90
23683;DHT22;24897;53.514;10.482;2022-10-30T16:06:27;18.20;99.90
23683;DHT22;24897;53.514;10.482;2022-10-30T16:09:13;18.10;99.90
23683;DHT22;24897;53.514;10.482;2022-10-30T16:11:58;17.90;99.90
23683;DHT22;24897;53.514;10.482;2022-10-30T16:14:43;17.70;99.90
23683;DHT22;24897;53.514;10.482;2022-10-30T16:17:27;17.70;99.90
23683;DHT22;24897;53.514;10.482;2022-10-30T16:20:12;17.60;99.90
23683;DHT22;24897;53.514;10.482;2022-10-30T16:22:56;17.20;99.90
23683;DHT22;24897;53.514;10.482;2022-10-30T16:25:42;17.40;99.90
23683;DHT22;24897;53.514;10.482;2022-10-30T16:31:13;17.20;99.90
23683;DHT22;24897;53.514;10.482;2022-10-30T16:33:59;17.30;99.90
23683;DHT22;24897;53.514;10.482;2022-10-30T16:36:44;17.00;99.90
23683;DHT22;24897;53.514;10.482;2022-10-30T16:39:30;16.80;99.90
23683;DHT22;24897;53.514;10.482;2022-10-30T16:42:22;16.70;99.90
23683;DHT22;24897;53.514;10.482;2022-10-30T16:48:27;16.50;99.90
23683;DHT22;24897;53.514;10.482;2022-10-30T16:51:15;16.40;99.90
23683;DHT22;24897;53.514;10.482;2022-10-30T16:54:00;17.20;99.90
23683;DHT22;24897;53.514;10.482;2022-10-30T16:56:44;16.40;99.90
23683;DHT22;24897;53.514;10.482;2022-10-30T16:59:36;16.40;99.90
23683;DHT22;24897;53.514;10.482;2022-10-30T17:02:30;16.30;99.90
23683;DHT22;24897;53.514;10.482;2022-10-30T17:05:29;16.30;99.90
23683;DHT22;24897;53.514;10.482;2022-10-30T17:11:05;16.30;99.90
23683;DHT22;24897;53.514;10.482;2022-10-30T17:16:38;16.20;99.90
23683;DHT22;24897;53.514;10.482;2022-10-30T17:22:16;16.10;99.90
23683;DHT22;24897;53.514;10.482;2022-10-30T17:25:14;16.10;99.90
23683;DHT22;24897;53.514;10.482;2022-10-30T17:28:00;16.10;99.90
23683;DHT22;24897;53.514;10.482;2022-10-30T17:30:44;16.10;99.90
23683;DHT22;24897;53.514;10.482;2022-10-30T17:33:36;16.10;99.90
23683;DHT22;24897;53.514;10.482;2022-10-30T17:36:20;16.00;99.90
23683;DHT22;24897;53.514;10.482;2022-10-30T17:39:05;16.00;99.90
23683;DHT22;24897;53.514;10.482;2022-10-30T17:41:51;15.90;99.90
23683;DHT22;24897;53.514;10.482;2022-10-30T17:44:36;15.90;99.90
23683;DHT22;24897;53.514;10.482;2022-10-30T17:47:20;15.80;99.90
23683;DHT22;24897;53.514;10.482;2022-10-30T17:50:05;15.70;99.90
23683;DHT22;24897;53.514;10.482;2022-10-30T17:52:49;15.70;99.90
23683;DHT22;24897;53.514;10.482;2022-10-30T17:55:34;15.70;99.90
23683;DHT22;24897;53.514;10.482;2022-10-30T17:58:19;15.60;99.90
23683;DHT22;24897;53.514;10.482;2022-10-30T18:01:03;15.40;99.90
23683;DHT22;24897;53.514;10.482;2022-10-30T18:03:48;15.40;99.90
23683;DHT22;24897;53.514;10.482;2022-10-30T18:06:32;15.30;99.90
23683;DHT22;24897;53.514;10.482;2022-10-30T18:09:16;15.30;99.90
23683;DHT22;24897;53.514;10.482;2022-10-30T18:12:01;15.30;99.90
23683;DHT22;24897;53.514;10.482;2022-10-30T18:14:46;15.30;99.90
23683;DHT22;24897;53.514;10.482;2022-10-30T18:17:30;15.20;99.90
23683;DHT22;24897;53.514;10.482;2022-10-30T18:20:14;15.20;99.90
23683;DHT22;24897;53.514;10.482;2022-10-30T18:22:58;15.30;99.90
23683;DHT22;24897;53.514;10.482;2022-10-30T18:25:43;15.30;99.90
23683;DHT22;24897;53.514;10.482;2022-10-30T18:28:27;15.20;99.90
23683;DHT22;24897;53.514;10.482;2022-10-30T18:31:13;15.20;99.90
23683;DHT22;24897;53.514;10.482;2022-10-30T18:33:57;15.00;99.90
23683;DHT22;24897;53.514;10.482;2022-10-30T18:36:41;15.00;99.90
23683;DHT22;24897;53.514;10.482;2022-10-30T18:39:26;14.90;99.90
23683;DHT22;24897;53.514;10.482;2022-10-30T18:42:10;14.80;99.90
23683;DHT22;24897;53.514;10.482;2022-10-30T18:44:54;14.80;99.90
23683;DHT22;24897;53.514;10.482;2022-10-30T18:47:38;14.80;99.90
23683;DHT22;24897;53.514;10.482;2022-10-30T18:50:23;14.70;99.90
23683;DHT22;24897;53.514;10.482;2022-10-30T18:53:15;14.70;99.90
23683;DHT22;24897;53.514;10.482;2022-10-30T18:56:00;14.80;99.90
23683;DHT22;24897;53.514;10.482;2022-10-30T18:58:44;14.70;99.90
23683;DHT22;24897;53.514;10.482;2022-10-30T19:01:31;14.70;99.90
23683;DHT22;24897;53.514;10.482;2022-10-30T19:04:16;14.70;99.90
23683;DHT22;24897;53.514;10.482;2022-10-30T19:07:00;14.70;99.90
23683;DHT22;24897;53.514;10.482;2022-10-30T19:09:45;14.60;99.90
23683;DHT22;24897;53.514;10.482;2022-10-30T19:12:29;14.50;99.90
23683;DHT22;24897;53.514;10.482;2022-10-30T19:18:00;14.40;99.90
23683;DHT22;24897;53.514;10.482;2022-10-30T19:20:44;14.40;99.90
23683;DHT22;24897;53.514;10.482;2022-10-30T19:23:29;14.40;99.90
23683;DHT22;24897;53.514;10.482;2022-10-30T19:26:13;14.40;99.90
23683;DHT22;24897;53.514;10.482;2022-10-30T19:28:58;14.40;99.90
23683;DHT22;24897;53.514;10.482;2022-10-30T19:31:42;14.30;99.90
23683;DHT22;24897;53.514;10.482;2022-10-30T19:34:27;14.30;99.90
23683;DHT22;24897;53.514;10.482;2022-10-30T19:37:11;14.30;99.90
23683;DHT22;24897;53.514;10.482;2022-10-30T19:39:55;14.30;99.90
23683;DHT22;24897;53.514;10.482;2022-10-30T19:42:39;14.20;99.90
23683;DHT22;24897;53.514;10.482;2022-10-30T19:45:26;14.20;99.90
23683;DHT22;24897;53.514;10.482;2022-10-30T19:48:15;14.20;99.90
23683;DHT22;24897;53.514;10.482;2022-10-30T19:50:59;14.20;99.90
23683;DHT22;24897;53.514;10.482;2022-10-30T19:53:43;14.20;99.90
23683;DHT22;24897;53.514;10.482;2022-10-30T19:56:27;14.20;99.90